Time;durP1;ratioP1;P1;durP2;ratioP2;P2;SDS_P1;SDS_P2;PMS_P1;PMS_P2;Temp;Humidity;BMP_temperature;BMP_pressure;BME280_temperature;BME280_humidity;BME280_pressure;Samples;Min_cycle;Max_cycle;Signal;HPM_P1;HPM_P2
2023/11/18 00:01:49;;;;;;;;;;;2.20;99.90;;;;;;7386120;19;19926;-66
2023/11/18 00:04:15;;;;;;;;;;;2.20;99.90;;;;;;7385892;19;19923;-69
2023/11/18 00:06:43;;;;;;;;;;;2.10;99.90;;;;;;7376873;19;20006;-69
2023/11/18 00:09:14;;;;;;;;;;;2.10;99.90;;;;;;7382361;19;19922;-67
2023/11/18 00:11:41;;;;;;;;;;;2.10;99.90;;;;;;7386522;19;20763;-67
2023/11/18 00:14:07;;;;;;;;;;;2.10;99.90;;;;;;7384135;19;19915;-68
2023/11/18 00:16:34;;;;;;;;;;;2.10;99.90;;;;;;7382241;19;19953;-65
2023/11/18 00:19:01;;;;;;;;;;;1.90;99.90;;;;;;7386530;19;19930;-66
2023/11/18 00:21:27;;;;;;;;;;;1.90;99.90;;;;;;7379396;19;19918;-66
2023/11/18 00:23:55;;;;;;;;;;;1.90;99.90;;;;;;7387020;19;20355;-66
2023/11/18 00:26:22;;;;;;;;;;;2.00;99.90;;;;;;7375806;19;19926;-68
2023/11/18 00:28:52;;;;;;;;;;;2.00;99.90;;;;;;7378794;19;19930;-67
2023/11/18 00:31:18;;;;;;;;;;;1.90;99.90;;;;;;7377006;19;19919;-67
2023/11/18 00:33:45;;;;;;;;;;;1.90;99.90;;;;;;7380441;19;19929;-65
2023/11/18 00:36:13;;;;;;;;;;;1.90;99.90;;;;;;7384260;19;19919;-65
2023/11/18 00:38:40;;;;;;;;;;;1.90;99.90;;;;;;7383320;19;20001;-65
2023/11/18 00:41:06;;;;;;;;;;;2.00;99.90;;;;;;7380700;19;19994;-67
2023/11/18 00:43:32;;;;;;;;;;;1.90;99.90;;;;;;7376083;19;19922;-67
2023/11/18 00:45:59;;;;;;;;;;;1.90;99.90;;;;;;7375711;19;19926;-67
2023/11/18 00:48:25;;;;;;;;;;;1.90;99.90;;;;;;7375918;19;19922;-66
2023/11/18 00:50:51;;;;;;;;;;;1.90;99.90;;;;;;7381336;19;19930;-66
2023/11/18 00:53:18;;;;;;;;;;;1.90;99.90;;;;;;7381925;19;19930;-66
2023/11/18 00:55:45;;;;;;;;;;;1.90;99.90;;;;;;7380293;19;19923;-65
2023/11/18 00:58:11;;;;;;;;;;;1.90;99.90;;;;;;7381770;19;19923;-65
2023/11/18 01:00:37;;;;;;;;;;;1.90;99.90;;;;;;7378955;19;19925;-66
2023/11/18 01:03:05;;;;;;;;;;;1.90;99.90;;;;;;7382280;19;19926;-66
2023/11/18 01:05:31;;;;;;;;;;;1.90;99.90;;;;;;7383251;19;20723;-66
2023/11/18 01:07:58;;;;;;;;;;;1.90;99.90;;;;;;7382295;19;19919;-65
2023/11/18 01:10:24;;;;;;;;;;;2.00;99.90;;;;;;7381640;19;19923;-66
2023/11/18 01:12:50;;;;;;;;;;;2.00;99.90;;;;;;7378627;19;19926;-64
2023/11/18 01:15:17;;;;;;;;;;;2.00;99.90;;;;;;7380717;19;19926;-65
2023/11/18 01:17:44;;;;;;;;;;;2.00;99.90;;;;;;7380800;19;19926;-65
2023/11/18 01:20:11;;;;;;;;;;;2.00;99.90;;;;;;7383244;19;20749;-66
2023/11/18 01:22:38;;;;;;;;;;;2.00;99.90;;;;;;7380342;19;19933;-65
2023/11/18 01:25:06;;;;;;;;;;;2.00;99.90;;;;;;7382748;19;19925;-65
2023/11/18 01:27:33;;;;;;;;;;;2.10;99.90;;;;;;7377765;19;19927;-66
2023/11/18 01:30:00;;;;;;;;;;;2.10;99.90;;;;;;7379644;19;19938;-65
2023/11/18 01:32:30;;;;;;;;;;;2.10;99.90;;;;;;7379922;19;19964;-65
2023/11/18 01:34:56;;;;;;;;;;;2.10;99.90;;;;;;7379471;19;19918;-65
2023/11/18 01:37:24;;;;;;;;;;;2.10;99.90;;;;;;7379167;19;20434;-67
2023/11/18 01:39:50;;;;;;;;;;;2.10;99.90;;;;;;7373993;19;19926;-67
2023/11/18 01:42:17;;;;;;;;;;;2.10;99.90;;;;;;7375631;19;19918;-68
2023/11/18 01:44:44;;;;;;;;;;;2.10;99.90;;;;;;7378701;19;19981;-65
2023/11/18 01:47:13;;;;;;;;;;;2.10;99.90;;;;;;7380078;19;19923;-66
2023/11/18 01:49:40;;;;;;;;;;;2.20;99.90;;;;;;7379548;19;19993;-68
2023/11/18 01:52:07;;;;;;;;;;;2.20;99.90;;;;;;7378062;19;19938;-67
2023/11/18 01:54:37;;;;;;;;;;;2.30;99.90;;;;;;7374973;19;19919;-66
2023/11/18 01:57:05;;;;;;;;;;;2.30;99.90;;;;;;7373122;19;19943;-68
2023/11/18 01:59:35;;;;;;;;;;;2.30;99.90;;;;;;7373617;19;19918;-67
2023/11/18 02:02:01;;;;;;;;;;;2.30;99.90;;;;;;7372871;19;20695;-67
2023/11/18 02:04:29;;;;;;;;;;;2.30;99.90;;;;;;7374900;19;19996;-66
2023/11/18 02:06:56;;;;;;;;;;;2.40;99.90;;;;;;7380309;19;19972;-65
2023/11/18 02:09:31;;;;;;;;;;;2.40;99.90;;;;;;7377939;19;19932;-66
2023/11/18 02:11:58;;;;;;;;;;;2.40;99.90;;;;;;7377882;19;20349;-64
2023/11/18 02:14:26;;;;;;;;;;;2.40;99.90;;;;;;7377820;19;19944;-67
2023/11/18 02:16:56;;;;;;;;;;;2.50;99.90;;;;;;7379235;19;19919;-65
2023/11/18 02:19:24;;;;;;;;;;;2.40;99.90;;;;;;7380910;19;19933;-64
2023/11/18 02:21:51;;;;;;;;;;;2.50;99.90;;;;;;7376672;19;20842;-65
2023/11/18 02:24:33;;;;;;;;;;;2.50;99.90;;;;;;7382428;19;19918;-66
2023/11/18 02:27:01;;;;;;;;;;;2.50;99.90;;;;;;7376581;19;20830;-65
2023/11/18 02:29:29;;;;;;;;;;;2.60;99.90;;;;;;7381054;19;19923;-65
2023/11/18 02:32:01;;;;;;;;;;;2.60;99.90;;;;;;7377107;19;19926;-65
2023/11/18 02:34:30;;;;;;;;;;;2.70;99.90;;;;;;7369158;19;19926;-67
2023/11/18 02:37:00;;;;;;;;;;;2.70;99.90;;;;;;7376825;19;19956;-65
2023/11/18 02:39:31;;;;;;;;;;;2.70;99.90;;;;;;7378520;19;19922;-66
2023/11/18 02:41:57;;;;;;;;;;;2.70;99.90;;;;;;7378704;19;19930;-65
2023/11/18 02:44:25;;;;;;;;;;;2.80;99.90;;;;;;7378233;19;20369;-68
2023/11/18 02:46:51;;;;;;;;;;;2.80;99.90;;;;;;7373620;19;20291;-67
2023/11/18 02:49:17;;;;;;;;;;;2.80;99.90;;;;;;7373550;19;19919;-68
2023/11/18 02:51:47;;;;;;;;;;;2.80;99.90;;;;;;7372259;19;20457;-68
2023/11/18 02:54:13;;;;;;;;;;;2.90;99.90;;;;;;7373417;19;20406;-67
2023/11/18 02:56:39;;;;;;;;;;;2.90;99.90;;;;;;7369553;19;19931;-67
2023/11/18 02:59:06;;;;;;;;;;;2.90;99.90;;;;;;7374121;19;19934;-67
2023/11/18 03:01:33;;;;;;;;;;;2.90;99.90;;;;;;7372524;19;19926;-67
2023/11/18 03:04:00;;;;;;;;;;;3.00;99.90;;;;;;7375713;19;19921;-67
2023/11/18 03:06:26;;;;;;;;;;;3.00;99.90;;;;;;7380890;19;20345;-65
2023/11/18 03:08:52;;;;;;;;;;;3.00;99.90;;;;;;7374915;19;19918;-65
2023/11/18 03:11:20;;;;;;;;;;;3.10;99.90;;;;;;7378275;19;19930;-65
2023/11/18 03:13:46;;;;;;;;;;;3.10;99.90;;;;;;7376505;19;21332;-65
2023/11/18 03:16:12;;;;;;;;;;;3.10;99.90;;;;;;7379752;19;19921;-67
2023/11/18 03:18:42;;;;;;;;;;;3.20;99.90;;;;;;7378792;19;19958;-65
2023/11/18 03:21:12;;;;;;;;;;;3.20;99.90;;;;;;7376890;19;19915;-66
2023/11/18 03:23:38;;;;;;;;;;;3.20;99.90;;;;;;7380032;19;19919;-65
2023/11/18 03:26:08;;;;;;;;;;;3.20;99.90;;;;;;7384821;19;19938;-66
2023/11/18 03:28:36;;;;;;;;;;;3.30;99.90;;;;;;7386640;19;19935;-66
2023/11/18 03:31:03;;;;;;;;;;;3.30;99.90;;;;;;7384506;19;19930;-65
2023/11/18 03:33:29;;;;;;;;;;;3.40;99.90;;;;;;7384580;19;20309;-68
2023/11/18 03:35:56;;;;;;;;;;;3.40;99.90;;;;;;7381587;19;20006;-68
2023/11/18 03:38:23;;;;;;;;;;;3.40;99.90;;;;;;7378646;19;19914;-67
2023/11/18 03:40:49;;;;;;;;;;;3.50;99.90;;;;;;7379323;19;19976;-68
2023/11/18 03:43:15;;;;;;;;;;;3.50;99.90;;;;;;7384897;19;19930;-64
2023/11/18 03:45:42;;;;;;;;;;;3.50;99.90;;;;;;7382401;19;19923;-67
2023/11/18 03:48:08;;;;;;;;;;;3.50;99.90;;;;;;7379075;19;19915;-67
2023/11/18 03:50:34;;;;;;;;;;;3.50;99.90;;;;;;7377603;19;20339;-67
2023/11/18 03:53:03;;;;;;;;;;;3.50;99.90;;;;;;7380159;19;19926;-68
2023/11/18 03:55:30;;;;;;;;;;;3.60;99.90;;;;;;7377900;19;19925;-66
2023/11/18 03:57:57;;;;;;;;;;;3.60;99.90;;;;;;7373259;19;20598;-66
2023/11/18 04:00:29;;;;;;;;;;;3.60;99.90;;;;;;7377000;19;19970;-67
2023/11/18 04:02:56;;;;;;;;;;;3.60;99.90;;;;;;7382829;19;20429;-65
2023/11/18 04:05:22;;;;;;;;;;;3.60;99.90;;;;;;7385061;19;20634;-66
2023/11/18 04:07:48;;;;;;;;;;;3.70;99.90;;;;;;7384861;19;20704;-66
2023/11/18 04:10:18;;;;;;;;;;;3.70;99.90;;;;;;7384944;19;19922;-67
2023/11/18 04:12:48;;;;;;;;;;;3.70;99.90;;;;;;7380095;19;19927;-67
2023/11/18 04:15:17;;;;;;;;;;;3.70;99.90;;;;;;7377897;19;19926;-67
2023/11/18 04:17:44;;;;;;;;;;;3.70;99.90;;;;;;7376028;19;19926;-67
2023/11/18 04:20:12;;;;;;;;;;;3.80;99.90;;;;;;7379617;19;19933;-65
2023/11/18 04:22:39;;;;;;;;;;;3.80;99.90;;;;;;7382561;19;19914;-65
2023/11/18 04:25:06;;;;;;;;;;;3.80;99.90;;;;;;7380488;19;19926;-65
2023/11/18 04:27:32;;;;;;;;;;;3.80;99.90;;;;;;7382074;19;19978;-65
2023/11/18 04:29:59;;;;;;;;;;;3.90;99.90;;;;;;7379207;19;19927;-65
2023/11/18 04:32:26;;;;;;;;;;;3.90;99.90;;;;;;7377018;19;19983;-67
2023/11/18 04:34:53;;;;;;;;;;;3.90;99.90;;;;;;7371567;19;19923;-67
2023/11/18 04:37:19;;;;;;;;;;;3.90;99.90;;;;;;7374874;19;19941;-67
2023/11/18 04:39:46;;;;;;;;;;;3.90;99.90;;;;;;7372206;19;19926;-67
2023/11/18 04:42:12;;;;;;;;;;;3.90;99.90;;;;;;7374781;19;20838;-67
2023/11/18 04:44:39;;;;;;;;;;;4.00;99.90;;;;;;7375114;19;19964;-67
2023/11/18 04:47:06;;;;;;;;;;;4.00;99.90;;;;;;7379787;19;19919;-65
2023/11/18 04:49:32;;;;;;;;;;;4.00;99.90;;;;;;7377101;19;20642;-68
2023/11/18 04:51:58;;;;;;;;;;;4.10;99.90;;;;;;7379875;19;19925;-66
2023/11/18 04:54:25;;;;;;;;;;;4.00;99.90;;;;;;7376937;19;19943;-65
2023/11/18 04:56:51;;;;;;;;;;;4.10;99.90;;;;;;7379138;19;19926;-66
2023/11/18 04:59:17;;;;;;;;;;;4.10;99.90;;;;;;7377580;19;19923;-65
2023/11/18 05:01:43;;;;;;;;;;;4.10;99.90;;;;;;7381835;19;20289;-67
2023/11/18 05:04:10;;;;;;;;;;;4.10;99.90;;;;;;7375600;19;19927;-67
2023/11/18 05:06:37;;;;;;;;;;;4.20;99.90;;;;;;7378607;19;20313;-66
2023/11/18 05:09:07;;;;;;;;;;;4.20;99.90;;;;;;7380489;19;20300;-66
2023/11/18 05:11:34;;;;;;;;;;;4.20;99.90;;;;;;7381840;19;19978;-66
2023/11/18 05:14:00;;;;;;;;;;;4.20;99.90;;;;;;7381867;19;20186;-65
2023/11/18 05:16:26;;;;;;;;;;;4.30;99.90;;;;;;7381200;19;19947;-66
2023/11/18 05:18:52;;;;;;;;;;;4.30;99.90;;;;;;7380358;19;19950;-66
2023/11/18 05:21:18;;;;;;;;;;;4.30;99.90;;;;;;7374312;19;19933;-68
2023/11/18 05:23:45;;;;;;;;;;;4.40;99.90;;;;;;7373506;19;20639;-68
2023/11/18 05:26:13;;;;;;;;;;;4.30;99.90;;;;;;7373403;19;19922;-68
2023/11/18 05:28:40;;;;;;;;;;;4.30;99.90;;;;;;7374692;19;19926;-68
2023/11/18 05:31:08;;;;;;;;;;;4.40;99.90;;;;;;7369054;19;19919;-68
2023/11/18 05:33:35;;;;;;;;;;;4.30;99.90;;;;;;7373556;19;20346;-67
2023/11/18 05:36:04;;;;;;;;;;;4.40;99.90;;;;;;7370055;19;19918;-68
2023/11/18 05:38:34;;;;;;;;;;;4.40;99.90;;;;;;7374017;19;19921;-68
2023/11/18 05:41:03;;;;;;;;;;;4.40;99.90;;;;;;7370835;19;19917;-67
2023/11/18 05:43:36;;;;;;;;;;;4.40;99.90;;;;;;7376140;19;19927;-67
2023/11/18 05:46:14;;;;;;;;;;;4.40;99.90;;;;;;7373771;19;19922;-67
2023/11/18 05:48:42;;;;;;;;;;;4.40;99.90;;;;;;7380834;19;19990;-66
2023/11/18 05:51:08;;;;;;;;;;;4.40;99.90;;;;;;7379426;19;20311;-65
2023/11/18 05:53:36;;;;;;;;;;;4.40;99.90;;;;;;7377486;19;19989;-68
2023/11/18 05:56:03;;;;;;;;;;;4.40;99.90;;;;;;7371666;19;19946;-68
2023/11/18 05:58:29;;;;;;;;;;;4.40;99.90;;;;;;7371042;19;19927;-68
2023/11/18 06:00:55;;;;;;;;;;;4.40;99.90;;;;;;7373470;19;20298;-66
2023/11/18 06:03:21;;;;;;;;;;;4.40;99.90;;;;;;7378329;19;20478;-66
2023/11/18 06:05:47;;;;;;;;;;;4.40;99.90;;;;;;7377558;19;20618;-67
2023/11/18 06:08:13;;;;;;;;;;;4.40;99.90;;;;;;7380055;19;19915;-65
2023/11/18 06:14:21;;;;;;;;;;;4.40;99.90;;;;;;7376274;19;19922;-65
2023/11/18 06:16:50;;;;;;;;;;;4.40;99.90;;;;;;7379339;19;19914;-65
2023/11/18 06:19:17;;;;;;;;;;;4.40;99.90;;;;;;7380955;19;20289;-65
2023/11/18 06:21:43;;;;;;;;;;;4.40;99.90;;;;;;7374360;19;20419;-64
2023/11/18 06:24:11;;;;;;;;;;;4.40;99.90;;;;;;7371373;19;20449;-69
2023/11/18 06:26:37;;;;;;;;;;;4.40;99.90;;;;;;7366470;19;19947;-67
2023/11/18 06:29:06;;;;;;;;;;;4.40;99.90;;;;;;7379498;19;19925;-67
2023/11/18 06:31:33;;;;;;;;;;;4.40;99.90;;;;;;7380908;19;19940;-68
2023/11/18 06:33:59;;;;;;;;;;;4.50;99.90;;;;;;7383479;19;19991;-66
2023/11/18 06:36:26;;;;;;;;;;;4.50;99.90;;;;;;7383353;19;19934;-67
2023/11/18 06:38:53;;;;;;;;;;;4.50;99.90;;;;;;7380669;19;19922;-69
2023/11/18 06:41:22;;;;;;;;;;;4.50;99.90;;;;;;7381840;19;19951;-67
2023/11/18 06:46:15;;;;;;;;;;;4.60;99.90;;;;;;7372416;19;19994;-68
2023/11/18 06:48:44;;;;;;;;;;;4.60;99.90;;;;;;7373731;19;19926;-67
2023/11/18 06:51:11;;;;;;;;;;;4.60;99.90;;;;;;7370148;19;19946;-68
2023/11/18 06:53:39;;;;;;;;;;;4.60;99.90;;;;;;7382146;19;19926;-66
2023/11/18 06:56:05;;;;;;;;;;;4.70;99.90;;;;;;7383871;19;19918;-66
2023/11/18 06:58:32;;;;;;;;;;;4.70;99.90;;;;;;7386395;19;19918;-66
2023/11/18 07:00:58;;;;;;;;;;;4.70;99.90;;;;;;7386443;19;19929;-67
2023/11/18 07:03:27;;;;;;;;;;;4.70;99.90;;;;;;7387138;19;20627;-67
2023/11/18 07:05:53;;;;;;;;;;;4.70;99.90;;;;;;7385718;19;19929;-67
2023/11/18 07:08:19;;;;;;;;;;;4.70;99.90;;;;;;7385492;19;19926;-67
2023/11/18 07:10:46;;;;;;;;;;;4.70;99.90;;;;;;7383333;19;19927;-68
2023/11/18 07:13:12;;;;;;;;;;;4.70;99.90;;;;;;7386319;19;19928;-64
2023/11/18 07:15:38;;;;;;;;;;;4.70;99.90;;;;;;7385947;19;19923;-67
2023/11/18 07:18:06;;;;;;;;;;;4.80;99.90;;;;;;7383919;19;19955;-68
2023/11/18 07:20:32;;;;;;;;;;;4.70;99.90;;;;;;7385539;19;19926;-68
2023/11/18 07:22:58;;;;;;;;;;;4.80;99.90;;;;;;7384330;19;19929;-67
2023/11/18 07:25:25;;;;;;;;;;;4.80;99.90;;;;;;7385585;19;19914;-67
2023/11/18 07:27:51;;;;;;;;;;;4.80;99.90;;;;;;7385943;19;20678;-68
2023/11/18 07:30:18;;;;;;;;;;;4.80;99.90;;;;;;7384695;19;20398;-68
2023/11/18 07:32:45;;;;;;;;;;;4.80;99.90;;;;;;7384018;19;20493;-68
2023/11/18 07:35:11;;;;;;;;;;;4.90;99.90;;;;;;7383454;19;19995;-68
2023/11/18 07:37:37;;;;;;;;;;;4.80;99.90;;;;;;7387406;19;19915;-68
2023/11/18 07:40:05;;;;;;;;;;;4.90;99.90;;;;;;7386411;19;20639;-65
2023/11/18 07:42:34;;;;;;;;;;;4.90;99.90;;;;;;7385271;19;19946;-65
2023/11/18 07:45:03;;;;;;;;;;;4.80;99.90;;;;;;7390109;19;20326;-67
2023/11/18 07:47:31;;;;;;;;;;;4.90;99.90;;;;;;7388127;19;19929;-67
2023/11/18 07:49:58;;;;;;;;;;;4.90;99.90;;;;;;7388461;19;19927;-67
2023/11/18 07:52:28;;;;;;;;;;;4.80;99.90;;;;;;7388313;19;20243;-67
2023/11/18 07:54:55;;;;;;;;;;;4.90;99.90;;;;;;7385839;19;20017;-67
2023/11/18 07:57:24;;;;;;;;;;;4.90;99.90;;;;;;7387604;19;20298;-66
2023/11/18 07:59:52;;;;;;;;;;;4.90;99.90;;;;;;7390632;19;20606;-66
2023/11/18 08:02:20;;;;;;;;;;;4.90;99.90;;;;;;7386983;19;19941;-66
2023/11/18 08:04:50;;;;;;;;;;;4.90;99.90;;;;;;7388647;19;19915;-66
2023/11/18 08:07:16;;;;;;;;;;;4.80;99.90;;;;;;7386029;19;20525;-67
2023/11/18 08:09:43;;;;;;;;;;;4.80;99.90;;;;;;7386616;19;19923;-66
2023/11/18 08:12:09;;;;;;;;;;;4.80;99.90;;;;;;7388745;19;19919;-67
2023/11/18 08:14:35;;;;;;;;;;;4.80;99.90;;;;;;7386767;19;20310;-68
2023/11/18 08:17:02;;;;;;;;;;;4.70;99.90;;;;;;7386028;19;19918;-66
2023/11/18 08:19:28;;;;;;;;;;;4.70;99.90;;;;;;7386767;19;20339;-69
2023/11/18 08:21:54;;;;;;;;;;;4.70;99.90;;;;;;7384942;19;19923;-67
2023/11/18 08:24:21;;;;;;;;;;;4.70;99.90;;;;;;7387883;19;20230;-68
2023/11/18 08:26:47;;;;;;;;;;;4.70;99.90;;;;;;7383493;19;19923;-67
2023/11/18 08:29:13;;;;;;;;;;;4.70;99.90;;;;;;7384155;19;19922;-69
2023/11/18 08:31:40;;;;;;;;;;;4.70;99.90;;;;;;7383398;19;19915;-67
2023/11/18 08:34:07;;;;;;;;;;;4.70;99.90;;;;;;7383107;19;19927;-69
2023/11/18 08:36:34;;;;;;;;;;;4.70;99.90;;;;;;7379722;19;20454;-69
2023/11/18 08:39:00;;;;;;;;;;;4.70;99.90;;;;;;7384915;19;19992;-64
2023/11/18 08:41:26;;;;;;;;;;;4.70;99.90;;;;;;7379673;19;20006;-67
2023/11/18 08:43:53;;;;;;;;;;;4.70;99.90;;;;;;7379301;19;19950;-68
2023/11/18 08:46:19;;;;;;;;;;;4.70;99.90;;;;;;7386842;19;19927;-68
2023/11/18 08:48:47;;;;;;;;;;;4.70;99.90;;;;;;7385191;19;20307;-69
2023/11/18 08:51:16;;;;;;;;;;;4.70;99.90;;;;;;7379859;19;19939;-69
2023/11/18 08:53:42;;;;;;;;;;;4.70;99.90;;;;;;7379490;19;19925;-69
2023/11/18 08:56:13;;;;;;;;;;;4.70;99.90;;;;;;7379962;19;20410;-69
2023/11/18 08:58:44;;;;;;;;;;;4.70;99.90;;;;;;7377942;19;19927;-69
2023/11/18 09:01:14;;;;;;;;;;;4.70;99.90;;;;;;7379926;19;19953;-68
2023/11/18 09:03:48;;;;;;;;;;;4.70;99.90;;;;;;7381306;19;19923;-68
2023/11/18 09:06:17;;;;;;;;;;;4.70;99.90;;;;;;7380095;19;19922;-69
2023/11/18 09:08:44;;;;;;;;;;;4.70;99.90;;;;;;7380476;19;19994;-68
2023/11/18 09:11:14;;;;;;;;;;;4.70;99.90;;;;;;7380844;19;20425;-69
2023/11/18 09:13:53;;;;;;;;;;;4.70;99.90;;;;;;7378614;19;19930;-69
2023/11/18 09:16:25;;;;;;;;;;;4.70;99.90;;;;;;7379838;19;19923;-69
2023/11/18 09:18:51;;;;;;;;;;;4.70;99.90;;;;;;7376239;19;19914;-69
2023/11/18 09:21:24;;;;;;;;;;;4.60;99.90;;;;;;7380261;19;19922;-68
2023/11/18 09:23:51;;;;;;;;;;;4.60;99.90;;;;;;7380054;19;19927;-69
2023/11/18 09:26:17;;;;;;;;;;;4.70;99.90;;;;;;7380742;19;19922;-69
2023/11/18 09:28:46;;;;;;;;;;;4.70;99.90;;;;;;7375700;19;19922;-69
2023/11/18 09:31:12;;;;;;;;;;;4.70;99.90;;;;;;7378865;19;19952;-69
2023/11/18 09:33:44;;;;;;;;;;;4.70;99.90;;;;;;7373508;19;19925;-68
2023/11/18 09:36:14;;;;;;;;;;;4.70;99.90;;;;;;7377475;19;20593;-68
2023/11/18 09:38:42;;;;;;;;;;;4.70;99.90;;;;;;7375785;19;19974;-68
2023/11/18 09:41:11;;;;;;;;;;;4.70;99.90;;;;;;7379372;19;20473;-68
2023/11/18 09:43:52;;;;;;;;;;;4.70;99.90;;;;;;7410534;19;19923;-68
2023/11/18 09:46:23;;;;;;;;;;;4.70;99.90;;;;;;7409678;19;19963;-68
2023/11/18 09:49:14;;;;;;;;;;;4.80;99.90;;;;;;7414580;19;19974;-68
2023/11/18 09:51:41;;;;;;;;;;;4.80;99.90;;;;;;7411668;19;19923;-68
2023/11/18 09:54:14;;;;;;;;;;;4.90;99.90;;;;;;7414609;19;20739;-68
2023/11/18 09:56:46;;;;;;;;;;;4.90;99.90;;;;;;7412417;19;19942;-69
2023/11/18 09:59:15;;;;;;;;;;;4.90;99.90;;;;;;7413523;19;20395;-69
2023/11/18 10:01:43;;;;;;;;;;;4.90;99.90;;;;;;7413891;19;19982;-69
2023/11/18 10:04:11;;;;;;;;;;;4.90;99.90;;;;;;7413620;19;19974;-68
2023/11/18 10:06:40;;;;;;;;;;;4.90;99.90;;;;;;7419441;19;19962;-68
2023/11/18 10:09:16;;;;;;;;;;;4.90;99.90;;;;;;7421309;19;19982;-68
2023/11/18 10:11:42;;;;;;;;;;;4.90;99.90;;;;;;7422147;19;19935;-68
2023/11/18 10:14:10;;;;;;;;;;;4.90;99.90;;;;;;7419174;19;19982;-68
2023/11/18 10:16:38;;;;;;;;;;;4.90;99.90;;;;;;7420856;19;19926;-68
2023/11/18 10:19:08;;;;;;;;;;;4.90;99.90;;;;;;7420279;19;20316;-68
2023/11/18 10:21:39;;;;;;;;;;;5.00;99.90;;;;;;7419184;19;20331;-68
2023/11/18 10:24:14;;;;;;;;;;;4.90;99.90;;;;;;7420089;19;19997;-68
2023/11/18 10:26:42;;;;;;;;;;;4.90;99.90;;;;;;7419803;19;19944;-67
2023/11/18 10:29:09;;;;;;;;;;;4.90;99.90;;;;;;7419708;19;19936;-68
2023/11/18 10:31:37;;;;;;;;;;;4.80;99.90;;;;;;7419472;19;19992;-68
2023/11/18 10:34:04;;;;;;;;;;;4.90;99.90;;;;;;7418625;19;19915;-68
2023/11/18 10:36:33;;;;;;;;;;;4.80;99.90;;;;;;7416113;19;20070;-68
2023/11/18 10:39:03;;;;;;;;;;;4.90;99.90;;;;;;7415024;19;19957;-67
2023/11/18 10:41:30;;;;;;;;;;;4.80;99.90;;;;;;7414031;19;19922;-67
2023/11/18 10:44:13;;;;;;;;;;;4.90;99.90;;;;;;7413013;19;19950;-67
2023/11/18 10:46:41;;;;;;;;;;;4.80;99.90;;;;;;7412760;19;19941;-63
2023/11/18 10:49:09;;;;;;;;;;;4.90;99.90;;;;;;7414090;19;19945;-67
2023/11/18 10:51:38;;;;;;;;;;;4.90;99.90;;;;;;7415913;19;19964;-67
2023/11/18 10:54:13;;;;;;;;;;;4.90;99.90;;;;;;7397933;19;19923;-67
2023/11/18 10:56:46;;;;;;;;;;;4.90;99.90;;;;;;7382631;19;19927;-71
2023/11/18 10:59:16;;;;;;;;;;;4.90;99.90;;;;;;7385034;19;19925;-66
2023/11/18 11:01:42;;;;;;;;;;;4.90;99.90;;;;;;7381906;19;19915;-67
2023/11/18 11:04:10;;;;;;;;;;;4.90;99.90;;;;;;7384932;19;19926;-66
2023/11/18 11:06:43;;;;;;;;;;;4.90;99.90;;;;;;7384802;19;19954;-66
2023/11/18 11:09:14;;;;;;;;;;;5.00;99.90;;;;;;7384344;19;19922;-67
2023/11/18 11:11:46;;;;;;;;;;;5.00;99.90;;;;;;7384546;19;19930;-67
2023/11/18 11:14:16;;;;;;;;;;;5.00;99.90;;;;;;7382812;19;19931;-67
2023/11/18 11:16:45;;;;;;;;;;;5.00;99.90;;;;;;7381673;19;19930;-70
2023/11/18 11:19:22;;;;;;;;;;;5.10;99.90;;;;;;7381885;19;20013;-66
2023/11/18 11:22:11;;;;;;;;;;;5.10;99.90;;;;;;7383106;19;19919;-66
2023/11/18 11:24:49;;;;;;;;;;;5.10;99.90;;;;;;7382500;19;20686;-67
2023/11/18 11:27:35;;;;;;;;;;;5.10;99.90;;;;;;7380102;19;19923;-70
2023/11/18 11:30:10;;;;;;;;;;;5.20;99.90;;;;;;7379836;19;19926;-70
2023/11/18 11:32:58;;;;;;;;;;;5.20;99.90;;;;;;7383192;19;20573;-70
2023/11/18 11:35:30;;;;;;;;;;;5.20;99.90;;;;;;7380140;19;19919;-70
2023/11/18 11:38:04;;;;;;;;;;;5.20;99.90;;;;;;7381286;19;19926;-70
2023/11/18 11:40:31;;;;;;;;;;;5.20;99.90;;;;;;7380798;19;19919;-66
2023/11/18 11:42:57;;;;;;;;;;;5.20;99.90;;;;;;7382187;19;20011;-68
2023/11/18 11:45:28;;;;;;;;;;;5.30;99.90;;;;;;7382491;19;19927;-70
2023/11/18 11:48:13;;;;;;;;;;;5.30;99.90;;;;;;7381876;19;19914;-70
2023/11/18 11:51:06;;;;;;;;;;;5.30;99.90;;;;;;7380910;19;19915;-68
2023/11/18 11:53:39;;;;;;;;;;;5.30;99.90;;;;;;7382355;19;19922;-68
2023/11/18 11:56:06;;;;;;;;;;;5.30;99.90;;;;;;7382172;19;20435;-65
2023/11/18 11:58:38;;;;;;;;;;;5.30;99.90;;;;;;7382361;19;19939;-65
2023/11/18 12:01:24;;;;;;;;;;;5.30;99.90;;;;;;7380413;19;19937;-65
2023/11/18 12:03:57;;;;;;;;;;;5.30;99.90;;;;;;7385349;19;19915;-68
2023/11/18 12:06:24;;;;;;;;;;;5.30;99.90;;;;;;7392884;19;19991;-68
2023/11/18 12:08:54;;;;;;;;;;;5.30;99.90;;;;;;7394968;19;20552;-68
2023/11/18 12:11:23;;;;;;;;;;;5.30;99.90;;;;;;7396223;19;19919;-68
2023/11/18 12:14:12;;;;;;;;;;;5.40;99.90;;;;;;7392070;19;19926;-66
2023/11/18 12:17:00;;;;;;;;;;;5.30;99.90;;;;;;7393156;19;19927;-65
2023/11/18 12:19:58;;;;;;;;;;;5.40;99.90;;;;;;7390442;19;19936;-66
2023/11/18 12:22:19;;;;;;;;;;;5.30;99.90;;;;;;7383660;19;19941;-66
2023/11/18 12:24:48;;;;;;;;;;;5.30;99.90;;;;;;7394195;19;20387;-66
2023/11/18 12:27:34;;;;;;;;;;;5.40;99.90;;;;;;7383059;19;19926;-66
2023/11/18 12:30:00;;;;;;;;;;;5.40;99.90;;;;;;7382924;19;19938;-68
2023/11/18 12:32:45;;;;;;;;;;;5.40;99.90;;;;;;7386218;19;20003;-67
2023/11/18 12:35:17;;;;;;;;;;;5.50;99.90;;;;;;7388475;19;20259;-67
2023/11/18 12:37:58;;;;;;;;;;;5.40;99.90;;;;;;7391811;19;19918;-68
2023/11/18 12:40:27;;;;;;;;;;;5.50;99.90;;;;;;7395448;19;19919;-68
2023/11/18 12:43:05;;;;;;;;;;;5.50;99.90;;;;;;7383589;19;19919;-70
2023/11/18 12:45:43;;;;;;;;;;;5.50;99.90;;;;;;7383062;19;19933;-69
2023/11/18 12:48:14;;;;;;;;;;;5.40;99.90;;;;;;7388239;19;19947;-68
2023/11/18 12:50:40;;;;;;;;;;;5.50;99.90;;;;;;7381670;19;19926;-68
2023/11/18 12:53:07;;;;;;;;;;;5.50;99.90;;;;;;7378757;19;20253;-68
2023/11/18 12:55:34;;;;;;;;;;;5.50;99.90;;;;;;7383844;19;19919;-68
2023/11/18 12:58:00;;;;;;;;;;;5.50;99.90;;;;;;7384180;19;20438;-69
2023/11/18 13:00:27;;;;;;;;;;;5.50;99.90;;;;;;7383896;19;19939;-68
2023/11/18 13:02:54;;;;;;;;;;;5.50;99.90;;;;;;7378389;19;19945;-69
2023/11/18 13:05:20;;;;;;;;;;;5.50;99.90;;;;;;7383204;19;19982;-68
2023/11/18 13:07:47;;;;;;;;;;;5.50;99.90;;;;;;7382757;19;20266;-68
2023/11/18 13:10:16;;;;;;;;;;;5.50;99.90;;;;;;7385925;19;19923;-68
2023/11/18 13:12:45;;;;;;;;;;;5.50;99.90;;;;;;7386315;19;19918;-68
2023/11/18 13:15:16;;;;;;;;;;;5.50;99.90;;;;;;7382786;19;19914;-67
2023/11/18 13:18:00;;;;;;;;;;;5.50;99.90;;;;;;7381176;19;19919;-68
2023/11/18 13:20:27;;;;;;;;;;;5.60;99.90;;;;;;7382296;19;19918;-68
2023/11/18 13:22:55;;;;;;;;;;;5.60;99.90;;;;;;7379668;19;19931;-69
2023/11/18 13:25:23;;;;;;;;;;;5.60;99.90;;;;;;7380896;19;19926;-68
2023/11/18 13:27:49;;;;;;;;;;;5.70;99.90;;;;;;7378104;19;19923;-67
2023/11/18 13:30:18;;;;;;;;;;;5.70;99.90;;;;;;7377965;19;19930;-68
2023/11/18 13:32:44;;;;;;;;;;;5.70;99.90;;;;;;7379591;19;19937;-68
2023/11/18 13:35:13;;;;;;;;;;;5.70;99.90;;;;;;7377396;19;20006;-68
2023/11/18 13:37:41;;;;;;;;;;;5.70;99.90;;;;;;7382275;19;19918;-67
2023/11/18 13:40:07;;;;;;;;;;;5.70;99.90;;;;;;7379370;19;19927;-68
2023/11/18 13:42:36;;;;;;;;;;;5.70;99.90;;;;;;7382227;19;19927;-67
2023/11/18 13:45:11;;;;;;;;;;;5.70;99.90;;;;;;7384907;19;19915;-67
2023/11/18 13:47:37;;;;;;;;;;;5.80;99.90;;;;;;7387305;19;19926;-67
2023/11/18 13:50:08;;;;;;;;;;;5.80;99.90;;;;;;7389405;19;19958;-67
2023/11/18 13:52:38;;;;;;;;;;;5.80;99.90;;;;;;7392547;19;19919;-67
2023/11/18 13:55:06;;;;;;;;;;;5.80;99.90;;;;;;7392705;19;20257;-67
2023/11/18 13:57:32;;;;;;;;;;;5.80;99.90;;;;;;7394837;19;20330;-67
2023/11/18 14:00:07;;;;;;;;;;;5.80;99.90;;;;;;7395202;19;19925;-67
2023/11/18 14:02:37;;;;;;;;;;;5.80;99.90;;;;;;7394616;19;19915;-67
2023/11/18 14:05:05;;;;;;;;;;;5.80;99.90;;;;;;7395120;19;19930;-66
2023/11/18 14:07:31;;;;;;;;;;;5.80;99.90;;;;;;7392944;19;19915;-66
2023/11/18 14:09:59;;;;;;;;;;;5.80;99.90;;;;;;7382133;19;19922;-66
2023/11/18 14:12:27;;;;;;;;;;;5.80;99.90;;;;;;7396210;19;19915;-67
2023/11/18 14:14:54;;;;;;;;;;;5.80;99.90;;;;;;7395328;19;19906;-67
2023/11/18 14:17:24;;;;;;;;;;;5.80;99.90;;;;;;7395899;19;20335;-67
2023/11/18 14:19:52;;;;;;;;;;;5.70;99.90;;;;;;7394320;19;19923;-67
2023/11/18 14:22:18;;;;;;;;;;;5.80;99.90;;;;;;7392470;19;19919;-67
2023/11/18 14:24:49;;;;;;;;;;;5.80;99.90;;;;;;7395045;19;19918;-66
2023/11/18 14:27:16;;;;;;;;;;;5.80;99.90;;;;;;7391808;19;19914;-69
2023/11/18 14:29:44;;;;;;;;;;;5.80;99.90;;;;;;7397576;19;19915;-67
2023/11/18 14:32:15;;;;;;;;;;;5.80;99.90;;;;;;7399839;19;19967;-67
2023/11/18 14:34:42;;;;;;;;;;;5.80;99.90;;;;;;7402129;19;19938;-67
2023/11/18 14:37:08;;;;;;;;;;;5.80;99.90;;;;;;7405390;19;19907;-68
2023/11/18 14:39:37;;;;;;;;;;;5.80;99.90;;;;;;7393833;19;19918;-65
2023/11/18 14:42:03;;;;;;;;;;;5.80;99.90;;;;;;7398000;19;19922;-67
2023/11/18 14:44:29;;;;;;;;;;;5.90;99.90;;;;;;7401140;19;20260;-67
2023/11/18 14:46:56;;;;;;;;;;;5.90;99.90;;;;;;7399234;19;19911;-67